Time;durP1;ratioP1;P1;durP2;ratioP2;P2;SDS_P1;SDS_P2;PMS_P1;PMS_P2;Temp;Humidity;BMP_temperature;BMP_pressure;BME280_temperature;BME280_humidity;BME280_pressure;Samples;Min_cycle;Max_cycle;Signal;HPM_P1;HPM_P2
2023/10/08 00:01:35;;;;;;;;;;;13.50;99.90;;;;;;5070038;28;19976;-68
2023/10/08 00:04:04;;;;;;;;;;;13.50;99.90;;;;;;5059817;28;20372;-68
2023/10/08 00:06:30;;;;;;;;;;;13.50;99.90;;;;;;5064646;28;19944;-68
2023/10/08 00:08:59;;;;;;;;;;;13.40;99.90;;;;;;5061832;28;19929;-68
2023/10/08 00:11:31;;;;;;;;;;;13.40;99.90;;;;;;5063184;28;20011;-67
2023/10/08 00:13:57;;;;;;;;;;;13.40;99.90;;;;;;5078889;28;19916;-68
2023/10/08 00:16:22;;;;;;;;;;;13.40;99.90;;;;;;5059661;28;20607;-68
2023/10/08 00:18:51;;;;;;;;;;;13.40;99.90;;;;;;5061570;28;19925;-67
2023/10/08 00:21:17;;;;;;;;;;;13.30;99.90;;;;;;5052462;28;19920;-70
2023/10/08 00:23:48;;;;;;;;;;;13.30;99.90;;;;;;5052391;28;19994;-68
2023/10/08 00:26:18;;;;;;;;;;;13.30;99.90;;;;;;5071403;28;20369;-67
2023/10/08 00:28:47;;;;;;;;;;;13.30;99.90;;;;;;5082003;28;19926;-68
2023/10/08 00:31:17;;;;;;;;;;;13.30;99.90;;;;;;5066270;28;19963;-67
2023/10/08 00:33:44;;;;;;;;;;;13.30;99.90;;;;;;5057000;28;19917;-68
2023/10/08 00:36:20;;;;;;;;;;;13.30;99.90;;;;;;5057150;28;19916;-68
2023/10/08 00:38:54;;;;;;;;;;;13.20;99.90;;;;;;5065923;28;19931;-67
2023/10/08 00:41:22;;;;;;;;;;;13.20;99.90;;;;;;5048769;28;19970;-67
2023/10/08 00:43:48;;;;;;;;;;;13.20;99.90;;;;;;5053883;28;19970;-68
2023/10/08 00:46:23;;;;;;;;;;;13.20;99.90;;;;;;5054751;28;19924;-67
2023/10/08 00:48:55;;;;;;;;;;;13.10;99.90;;;;;;5052611;28;20007;-67
2023/10/08 00:51:27;;;;;;;;;;;13.00;99.90;;;;;;5059493;28;19916;-67
2023/10/08 00:53:53;;;;;;;;;;;13.00;99.90;;;;;;5059932;28;20005;-67
2023/10/08 00:56:19;;;;;;;;;;;13.00;99.90;;;;;;5070532;28;19998;-67
2023/10/08 00:58:51;;;;;;;;;;;12.90;99.90;;;;;;5068823;28;19943;-68
2023/10/08 01:01:20;;;;;;;;;;;12.90;99.90;;;;;;5065028;28;19923;-68
2023/10/08 01:03:45;;;;;;;;;;;12.90;99.90;;;;;;5075852;28;19927;-68
2023/10/08 01:06:12;;;;;;;;;;;12.90;99.90;;;;;;5065373;28;19924;-68
2023/10/08 01:08:45;;;;;;;;;;;12.90;99.90;;;;;;5075371;28;19925;-68
2023/10/08 01:11:17;;;;;;;;;;;12.90;99.90;;;;;;5061509;28;19968;-68
2023/10/08 01:13:44;;;;;;;;;;;12.90;99.90;;;;;;5055010;28;20803;-68
2023/10/08 01:16:10;;;;;;;;;;;12.90;99.90;;;;;;5062422;28;19916;-68
2023/10/08 01:18:40;;;;;;;;;;;12.80;99.90;;;;;;5063307;28;19916;-68
2023/10/08 01:21:08;;;;;;;;;;;12.80;99.90;;;;;;5073476;28;19974;-68
2023/10/08 01:23:33;;;;;;;;;;;12.80;99.90;;;;;;5043192;28;19925;-68
2023/10/08 01:26:11;;;;;;;;;;;12.90;99.90;;;;;;5062493;28;20255;-68
2023/10/08 01:28:37;;;;;;;;;;;12.90;99.90;;;;;;5068871;28;19973;-68
2023/10/08 01:31:04;;;;;;;;;;;12.90;99.90;;;;;;5075888;28;20326;-68
2023/10/08 01:33:31;;;;;;;;;;;12.90;99.90;;;;;;5060723;28;19920;-68
2023/10/08 01:36:04;;;;;;;;;;;12.80;99.90;;;;;;5060808;28;19917;-68
2023/10/08 01:38:30;;;;;;;;;;;12.80;99.90;;;;;;5059707;28;19931;-68
2023/10/08 01:40:56;;;;;;;;;;;12.80;99.90;;;;;;5068505;28;19924;-68
2023/10/08 01:43:22;;;;;;;;;;;12.80;99.90;;;;;;5057799;28;22400;-68
2023/10/08 01:45:52;;;;;;;;;;;12.80;99.90;;;;;;5058594;28;19935;-68
2023/10/08 01:48:20;;;;;;;;;;;12.70;99.90;;;;;;5059722;28;19920;-68
2023/10/08 01:50:47;;;;;;;;;;;12.70;99.90;;;;;;5062206;28;19932;-68
2023/10/08 01:53:15;;;;;;;;;;;12.70;99.90;;;;;;5053901;28;19916;-68
2023/10/08 01:55:51;;;;;;;;;;;12.70;99.90;;;;;;5060144;28;20310;-68
2023/10/08 01:58:17;;;;;;;;;;;12.80;99.90;;;;;;5067958;28;20006;-68
2023/10/08 02:00:45;;;;;;;;;;;12.80;99.90;;;;;;5068238;28;20363;-68
2023/10/08 02:03:12;;;;;;;;;;;12.80;99.90;;;;;;5044736;28;20368;-68
2023/10/08 02:05:39;;;;;;;;;;;12.70;99.90;;;;;;5060230;28;19971;-68
2023/10/08 02:08:06;;;;;;;;;;;12.70;99.90;;;;;;5060352;28;19931;-69
2023/10/08 02:10:33;;;;;;;;;;;12.60;99.90;;;;;;5057542;28;19921;-68
2023/10/08 02:12:59;;;;;;;;;;;12.60;99.90;;;;;;5060294;28;19920;-68
2023/10/08 02:15:26;;;;;;;;;;;12.60;99.90;;;;;;5054878;28;19925;-68
2023/10/08 02:17:51;;;;;;;;;;;12.60;99.90;;;;;;5059313;28;19989;-67
2023/10/08 02:20:18;;;;;;;;;;;12.50;99.90;;;;;;5061852;28;19920;-68
2023/10/08 02:22:45;;;;;;;;;;;12.50;99.90;;;;;;5072164;28;19931;-68
2023/10/08 02:25:11;;;;;;;;;;;12.50;99.90;;;;;;5059541;28;19927;-68
2023/10/08 02:27:37;;;;;;;;;;;12.50;99.90;;;;;;5063015;28;19928;-68
2023/10/08 02:30:06;;;;;;;;;;;12.50;99.90;;;;;;5066774;28;20070;-68
2023/10/08 02:32:31;;;;;;;;;;;12.50;99.90;;;;;;5066294;28;19924;-68
2023/10/08 02:34:57;;;;;;;;;;;12.40;99.90;;;;;;5066590;28;19923;-69
2023/10/08 02:37:23;;;;;;;;;;;12.40;99.90;;;;;;5052210;28;20009;-68
2023/10/08 02:39:48;;;;;;;;;;;12.50;99.90;;;;;;5067681;28;19920;-68
2023/10/08 02:42:14;;;;;;;;;;;12.40;99.90;;;;;;5060368;28;19923;-68
2023/10/08 02:44:41;;;;;;;;;;;12.40;99.90;;;;;;5066030;28;20130;-68
2023/10/08 02:47:14;;;;;;;;;;;12.40;99.90;;;;;;5068602;28;20417;-68
2023/10/08 02:49:42;;;;;;;;;;;12.30;99.90;;;;;;5058485;28;19982;-68
2023/10/08 02:52:11;;;;;;;;;;;12.40;99.90;;;;;;5056696;28;20077;-68
2023/10/08 02:54:37;;;;;;;;;;;12.40;99.90;;;;;;5060554;28;20321;-68
2023/10/08 02:57:04;;;;;;;;;;;12.40;99.90;;;;;;5061463;28;20371;-68
2023/10/08 02:59:39;;;;;;;;;;;12.40;99.90;;;;;;5067275;28;20349;-68
2023/10/08 03:02:14;;;;;;;;;;;12.40;99.90;;;;;;5071385;28;19924;-68
2023/10/08 03:04:40;;;;;;;;;;;12.40;99.90;;;;;;5066270;28;19920;-68
2023/10/08 03:07:11;;;;;;;;;;;12.40;99.90;;;;;;5056402;28;19916;-68
2023/10/08 03:09:41;;;;;;;;;;;12.40;99.90;;;;;;5062052;28;19924;-68
2023/10/08 03:12:09;;;;;;;;;;;12.30;99.90;;;;;;5048358;28;19916;-68
2023/10/08 03:14:47;;;;;;;;;;;12.30;99.90;;;;;;5062660;28;20276;-68
2023/10/08 03:17:19;;;;;;;;;;;12.40;99.90;;;;;;5070315;28;20285;-68
2023/10/08 03:19:45;;;;;;;;;;;12.40;99.90;;;;;;5063679;28;19924;-68
2023/10/08 03:22:12;;;;;;;;;;;12.40;99.90;;;;;;5058259;28;19924;-68
2023/10/08 03:24:37;;;;;;;;;;;12.40;99.90;;;;;;5064657;28;19972;-68
2023/10/08 03:27:15;;;;;;;;;;;12.40;99.90;;;;;;5046175;28;19928;-68
2023/10/08 03:29:41;;;;;;;;;;;12.40;99.90;;;;;;5064055;28;19920;-68
2023/10/08 03:32:15;;;;;;;;;;;12.40;99.90;;;;;;5060614;28;19922;-68
2023/10/08 03:34:48;;;;;;;;;;;12.40;99.90;;;;;;5075564;28;20121;-68
2023/10/08 03:37:20;;;;;;;;;;;12.50;99.90;;;;;;5076043;28;20338;-68
2023/10/08 03:40:00;;;;;;;;;;;12.40;99.90;;;;;;5047394;28;20303;-68
2023/10/08 03:42:25;;;;;;;;;;;12.50;99.90;;;;;;5062690;28;19924;-68
2023/10/08 03:44:52;;;;;;;;;;;12.50;99.90;;;;;;5041308;28;19924;-68
2023/10/08 03:47:22;;;;;;;;;;;12.50;99.90;;;;;;5062133;28;19977;-68
2023/10/08 03:49:51;;;;;;;;;;;12.50;99.90;;;;;;5057478;28;19974;-68
2023/10/08 03:52:21;;;;;;;;;;;12.50;99.90;;;;;;5066804;28;19920;-68
2023/10/08 03:55:04;;;;;;;;;;;12.40;99.90;;;;;;5079093;28;20288;-68
2023/10/08 03:57:41;;;;;;;;;;;12.40;99.90;;;;;;5057810;28;20011;-68
2023/10/08 04:00:10;;;;;;;;;;;12.40;99.90;;;;;;5067658;28;20487;-69
2023/10/08 04:02:41;;;;;;;;;;;12.50;99.90;;;;;;5054420;28;19916;-68
2023/10/08 04:05:19;;;;;;;;;;;12.50;99.90;;;;;;5060822;28;20080;-68
2023/10/08 04:13:08;;;;;;;;;;;12.50;99.90;;;;;;5065961;28;19963;-68
2023/10/08 04:15:40;;;;;;;;;;;12.50;99.90;;;;;;5057563;28;19996;-68
2023/10/08 04:18:06;;;;;;;;;;;12.50;99.90;;;;;;5058054;28;20076;-69
2023/10/08 04:20:38;;;;;;;;;;;12.50;99.90;;;;;;5074855;28;19964;-68
2023/10/08 04:23:05;;;;;;;;;;;12.50;99.90;;;;;;5074547;28;19920;-68
2023/10/08 04:25:32;;;;;;;;;;;12.50;99.90;;;;;;5072248;28;19916;-68
2023/10/08 04:28:00;;;;;;;;;;;12.50;99.90;;;;;;5059216;28;19932;-68
2023/10/08 04:30:32;;;;;;;;;;;12.50;99.90;;;;;;5041187;28;20035;-68
2023/10/08 04:33:04;;;;;;;;;;;12.50;99.90;;;;;;5058496;28;19916;-69
2023/10/08 04:35:30;;;;;;;;;;;12.50;99.90;;;;;;5057537;28;20260;-68
2023/10/08 04:37:56;;;;;;;;;;;12.50;99.90;;;;;;5070216;28;19927;-69
2023/10/08 04:40:23;;;;;;;;;;;12.50;99.90;;;;;;5074278;28;19920;-68
2023/10/08 04:42:49;;;;;;;;;;;12.50;99.90;;;;;;5067262;28;20015;-69
2023/10/08 04:45:16;;;;;;;;;;;12.50;99.90;;;;;;5067822;28;20007;-68
2023/10/08 04:47:42;;;;;;;;;;;12.60;99.90;;;;;;5068443;28;20052;-68
2023/10/08 04:50:17;;;;;;;;;;;12.50;99.90;;;;;;5075059;28;19955;-68
2023/10/08 04:52:58;;;;;;;;;;;12.60;99.90;;;;;;5053125;28;19931;-68
2023/10/08 04:55:29;;;;;;;;;;;12.50;99.90;;;;;;5062355;28;20277;-68
2023/10/08 04:57:55;;;;;;;;;;;12.50;99.90;;;;;;5057542;28;19924;-69
2023/10/08 05:00:41;;;;;;;;;;;12.50;99.90;;;;;;5064210;28;19974;-68
2023/10/08 05:03:16;;;;;;;;;;;12.50;99.90;;;;;;5042376;28;19920;-69
2023/10/08 05:06:02;;;;;;;;;;;12.50;99.90;;;;;;5059060;28;20300;-68
2023/10/08 05:08:47;;;;;;;;;;;12.50;99.90;;;;;;5074650;28;20346;-68
2023/10/08 05:11:24;;;;;;;;;;;12.50;99.90;;;;;;5079771;28;19916;-68
2023/10/08 05:14:01;;;;;;;;;;;12.50;99.90;;;;;;5068292;28;19916;-68
2023/10/08 05:16:36;;;;;;;;;;;12.50;99.90;;;;;;5063249;28;19936;-68
2023/10/08 05:19:26;;;;;;;;;;;12.50;99.90;;;;;;5060659;28;20339;-68
2023/10/08 05:22:01;;;;;;;;;;;12.50;99.90;;;;;;5062041;28;19982;-68
2023/10/08 05:24:37;;;;;;;;;;;12.50;99.90;;;;;;5064025;28;19916;-68
2023/10/08 05:27:37;;;;;;;;;;;12.50;99.90;;;;;;5061378;28;20205;-69
2023/10/08 05:32:51;;;;;;;;;;;12.40;99.90;;;;;;5057740;28;19920;-68
2023/10/08 05:38:13;;;;;;;;;;;12.40;99.90;;;;;;5059272;28;19924;-68
2023/10/08 05:41:27;;;;;;;;;;;12.40;99.90;;;;;;5062438;28;20313;-69
2023/10/08 05:46:39;;;;;;;;;;;12.30;99.90;;;;;;5078125;28;19994;-69
2023/10/08 06:13:10;;;;;;;;;;;12.40;99.90;;;;;;5063288;28;20396;-68
2023/10/08 06:15:48;;;;;;;;;;;12.50;99.90;;;;;;5063311;28;19916;-68
2023/10/08 06:18:14;;;;;;;;;;;12.50;99.90;;;;;;5063557;28;19916;-68
2023/10/08 06:20:43;;;;;;;;;;;12.50;99.90;;;;;;5058882;28;19920;-69
2023/10/08 06:23:18;;;;;;;;;;;12.50;99.90;;;;;;5062452;28;20053;-68
2023/10/08 06:25:46;;;;;;;;;;;12.50;99.90;;;;;;5065641;28;20007;-68
2023/10/08 06:28:19;;;;;;;;;;;12.60;99.90;;;;;;5059426;28;19920;-68
2023/10/08 06:30:48;;;;;;;;;;;12.60;99.90;;;;;;5072986;28;19935;-68
2023/10/08 06:33:14;;;;;;;;;;;12.60;99.90;;;;;;5067297;28;19916;-68
2023/10/08 06:35:44;;;;;;;;;;;12.60;99.90;;;;;;5063036;28;20307;-69
2023/10/08 06:38:10;;;;;;;;;;;12.60;99.90;;;;;;5075138;28;19936;-68
2023/10/08 06:43:21;;;;;;;;;;;12.70;99.90;;;;;;5059591;28;19920;-68
2023/10/08 06:45:52;;;;;;;;;;;12.70;99.90;;;;;;5072314;28;20303;-68
2023/10/08 06:48:20;;;;;;;;;;;12.80;99.90;;;;;;5066544;28;20050;-68
2023/10/08 06:50:46;;;;;;;;;;;12.80;99.90;;;;;;5063615;28;19925;-68
2023/10/08 06:53:13;;;;;;;;;;;12.80;99.90;;;;;;5049462;28;19920;-68
2023/10/08 06:55:40;;;;;;;;;;;12.90;99.90;;;;;;5060468;28;19923;-68
2023/10/08 06:58:05;;;;;;;;;;;12.90;99.90;;;;;;5053393;28;19920;-68
2023/10/08 07:00:46;;;;;;;;;;;12.90;99.90;;;;;;5078707;28;19921;-68
2023/10/08 07:03:14;;;;;;;;;;;12.90;99.90;;;;;;5057111;28;20012;-68
2023/10/08 07:05:40;;;;;;;;;;;13.00;99.90;;;;;;5057319;28;20030;-68
2023/10/08 07:08:12;;;;;;;;;;;13.30;99.90;;;;;;5060009;28;20015;-68
2023/10/08 07:10:38;;;;;;;;;;;13.60;99.90;;;;;;5055949;28;20442;-68
2023/10/08 07:13:07;;;;;;;;;;;13.70;99.90;;;;;;5046605;28;19923;-68
2023/10/08 07:15:33;;;;;;;;;;;13.70;99.90;;;;;;5070013;28;19920;-68
2023/10/08 07:18:08;;;;;;;;;;;13.70;99.90;;;;;;5062412;28;20339;-68
2023/10/08 07:20:38;;;;;;;;;;;13.50;99.90;;;;;;5063210;28;19938;-68
2023/10/08 07:23:09;;;;;;;;;;;13.50;99.90;;;;;;5046431;28;19924;-68
2023/10/08 07:25:36;;;;;;;;;;;13.50;99.90;;;;;;5061612;28;19980;-68
2023/10/08 07:28:05;;;;;;;;;;;13.70;99.90;;;;;;5056614;28;19931;-68
2023/10/08 07:30:38;;;;;;;;;;;13.80;99.90;;;;;;5073545;28;19932;-68
2023/10/08 07:33:04;;;;;;;;;;;13.90;99.90;;;;;;5064800;28;20344;-68
2023/10/08 07:35:30;;;;;;;;;;;14.00;99.90;;;;;;5066909;28;20062;-68
2023/10/08 07:37:55;;;;;;;;;;;14.00;99.90;;;;;;5061934;28;19984;-68
2023/10/08 07:40:21;;;;;;;;;;;13.90;99.90;;;;;;5059293;28;19927;-68
2023/10/08 07:42:51;;;;;;;;;;;13.90;99.90;;;;;;5081881;28;19916;-68
2023/10/08 07:45:17;;;;;;;;;;;13.90;99.90;;;;;;5065309;28;19952;-68
2023/10/08 07:47:44;;;;;;;;;;;13.90;99.90;;;;;;5068799;28;20240;-68
2023/10/08 07:50:12;;;;;;;;;;;13.80;99.90;;;;;;5070628;28;20569;-68
2023/10/08 07:52:38;;;;;;;;;;;13.90;99.90;;;;;;5050580;28;20382;-68
2023/10/08 07:55:07;;;;;;;;;;;14.00;99.90;;;;;;5070118;28;19916;-68
2023/10/08 07:57:33;;;;;;;;;;;14.00;99.90;;;;;;5067233;28;19920;-68
2023/10/08 08:00:18;;;;;;;;;;;14.10;99.90;;;;;;5069740;28;19922;-68
2023/10/08 08:02:44;;;;;;;;;;;14.10;99.90;;;;;;5074599;28;19927;-68
2023/10/08 08:05:09;;;;;;;;;;;14.10;99.90;;;;;;5092000;28;19994;-67
2023/10/08 08:07:35;;;;;;;;;;;14.20;99.90;;;;;;5061417;28;19927;-68
2023/10/08 08:10:01;;;;;;;;;;;14.20;99.90;;;;;;5078395;28;19917;-68
2023/10/08 08:12:28;;;;;;;;;;;14.20;99.90;;;;;;5048769;28;19922;-67
2023/10/08 08:14:54;;;;;;;;;;;14.20;99.90;;;;;;5069850;28;20004;-68
2023/10/08 08:17:19;;;;;;;;;;;14.20;99.90;;;;;;5079105;28;20352;-68
2023/10/08 08:19:49;;;;;;;;;;;14.00;99.90;;;;;;5055644;28;19999;-67
2023/10/08 08:22:21;;;;;;;;;;;13.80;99.90;;;;;;5064253;28;19931;-67
2023/10/08 08:25:15;;;;;;;;;;;13.70;99.90;;;;;;5065194;28;19995;-68
2023/10/08 08:27:43;;;;;;;;;;;13.60;99.90;;;;;;5067098;28;20005;-68
2023/10/08 08:30:15;;;;;;;;;;;13.60;99.90;;;;;;5067833;28;20674;-68
2023/10/08 08:32:44;;;;;;;;;;;13.50;99.90;;;;;;5063667;28;19924;-68
2023/10/08 08:35:10;;;;;;;;;;;13.60;99.90;;;;;;5062710;28;20033;-68
2023/10/08 08:37:38;;;;;;;;;;;13.70;99.90;;;;;;5075980;28;20377;-68
2023/10/08 08:40:17;;;;;;;;;;;13.70;99.90;;;;;;5080581;28;19917;-69
2023/10/08 08:42:46;;;;;;;;;;;13.80;99.90;;;;;;5051524;28;19978;-69
2023/10/08 08:45:13;;;;;;;;;;;13.90;99.90;;;;;;5086487;28;19924;-68
2023/10/08 08:47:40;;;;;;;;;;;14.00;99.90;;;;;;5074167;28;19968;-68
2023/10/08 08:50:08;;;;;;;;;;;14.20;99.90;;;;;;5068885;28;19924;-68
2023/10/08 08:52:38;;;;;;;;;;;14.30;99.90;;;;;;5074895;28;19927;-68
2023/10/08 08:55:14;;;;;;;;;;;14.40;99.90;;;;;;5071695;28;20301;-68
2023/10/08 08:57:41;;;;;;;;;;;14.40;99.90;;;;;;5068018;28;20073;-68
2023/10/08 09:00:11;;;;;;;;;;;14.50;99.90;;;;;;5083950;28;20034;-68
2023/10/08 09:02:39;;;;;;;;;;;14.50;99.90;;;;;;5067728;28;20468;-68
2023/10/08 09:05:13;;;;;;;;;;;14.60;99.90;;;;;;5068590;28;19924;-69
2023/10/08 09:07:58;;;;;;;;;;;14.60;99.90;;;;;;5068171;28;19916;-68
2023/10/08 09:10:28;;;;;;;;;;;14.70;99.90;;;;;;5062461;28;19921;-68
2023/10/08 09:12:53;;;;;;;;;;;14.70;99.90;;;;;;5068856;28;19984;-68
2023/10/08 09:15:19;;;;;;;;;;;14.80;99.90;;;;;;5066550;28;19934;-68
2023/10/08 09:17:46;;;;;;;;;;;14.90;99.90;;;;;;5085189;28;20007;-68
2023/10/08 09:20:12;;;;;;;;;;;15.10;99.90;;;;;;5068362;28;19920;-68
2023/10/08 09:22:38;;;;;;;;;;;15.10;99.90;;;;;;5063426;28;19916;-68
2023/10/08 09:25:07;;;;;;;;;;;15.20;99.90;;;;;;5051251;28;19923;-68
2023/10/08 09:27:32;;;;;;;;;;;15.30;99.90;;;;;;5068999;28;19931;-68
2023/10/08 09:29:59;;;;;;;;;;;15.50;99.90;;;;;;5074986;28;19924;-68
2023/10/08 09:32:25;;;;;;;;;;;15.60;99.90;;;;;;5071970;28;19920;-68
2023/10/08 09:34:52;;;;;;;;;;;15.70;99.90;;;;;;5051399;28;20417;-68
2023/10/08 09:37:17;;;;;;;;;;;15.60;99.90;;;;;;5064022;28;20370;-68
2023/10/08 09:39:45;;;;;;;;;;;15.80;99.90;;;;;;5078151;28;19920;-68
2023/10/08 09:42:12;;;;;;;;;;;15.80;99.90;;;;;;5049255;28;19920;-67
2023/10/08 09:44:37;;;;;;;;;;;15.80;99.90;;;;;;5067980;28;19920;-68
2023/10/08 09:47:04;;;;;;;;;;;15.80;99.90;;;;;;5068728;28;19970;-68
2023/10/08 09:49:38;;;;;;;;;;;15.90;99.90;;;;;;5081648;28;19922;-68
2023/10/08 09:52:06;;;;;;;;;;;15.90;99.90;;;;;;5064727;28;19993;-67
2023/10/08 09:54:39;;;;;;;;;;;15.90;99.90;;;;;;5047522;28;19927;-67
2023/10/08 09:57:06;;;;;;;;;;;16.00;99.90;;;;;;5051857;28;19924;-68
2023/10/08 09:59:33;;;;;;;;;;;16.00;99.90;;;;;;5077795;28;19930;-67
2023/10/08 10:01:59;;;;;;;;;;;16.00;99.90;;;;;;5065467;28;19921;-68
2023/10/08 10:04:25;;;;;;;;;;;16.00;99.90;;;;;;5060502;28;20256;-67
2023/10/08 10:06:50;;;;;;;;;;;16.00;99.90;;;;;;5062029;28;19916;-67
2023/10/08 10:09:22;;;;;;;;;;;16.00;99.90;;;;;;5073194;28;19964;-67
2023/10/08 10:11:49;;;;;;;;;;;16.00;99.90;;;;;;5058306;28;20019;-67
2023/10/08 10:14:17;;;;;;;;;;;15.80;98.70;;;;;;5060541;28;19951;-67
2023/10/08 10:16:45;;;;;;;;;;;15.80;99.90;;;;;;5084066;28;19916;-67
2023/10/08 10:19:18;;;;;;;;;;;15.70;99.50;;;;;;5065238;28;19961;-67
2023/10/08 10:21:45;;;;;;;;;;;15.70;99.90;;;;;;5066691;28;19920;-67
2023/10/08 10:24:43;;;;;;;;;;;15.70;97.10;;;;;;5064083;28;19938;-67
2023/10/08 10:27:11;;;;;;;;;;;15.80;99.90;;;;;;5068360;28;19920;-66
2023/10/08 10:29:37;;;;;;;;;;;15.80;97.00;;;;;;5083548;28;20383;-67
2023/10/08 10:32:05;;;;;;;;;;;15.90;98.00;;;;;;5067501;28;19963;-67
2023/10/08 10:34:34;;;;;;;;;;;16.00;98.80;;;;;;5048734;28;20004;-67
2023/10/08 10:37:02;;;;;;;;;;;16.00;96.00;;;;;;5066202;28;20347;-67
2023/10/08 10:39:31;;;;;;;;;;;16.20;96.60;;;;;;5068736;28;19920;-67
2023/10/08 10:42:01;;;;;;;;;;;16.30;97.40;;;;;;5051769;28;19924;-66
2023/10/08 10:44:27;;;;;;;;;;;16.40;94.70;;;;;;5083673;28;19923;-66
2023/10/08 10:47:25;;;;;;;;;;;16.50;94.20;;;;;;5062330;28;19917;-67
2023/10/08 10:49:48;;;;;;;;;;;16.40;90.70;;;;;;5085304;28;19921;-66
2023/10/08 10:52:17;;;;;;;;;;;16.50;93.90;;;;;;5065163;28;19920;-67
2023/10/08 10:54:57;;;;;;;;;;;16.70;95.40;;;;;;5068251;28;20270;-66
2023/10/08 10:57:34;;;;;;;;;;;16.80;95.10;;;;;;5067703;28;19920;-67
2023/10/08 11:00:18;;;;;;;;;;;17.00;93.50;;;;;;5050163;28;19916;-67
2023/10/08 11:02:48;;;;;;;;;;;17.10;94.60;;;;;;5064406;28;20463;-68
2023/10/08 11:05:19;;;;;;;;;;;17.20;90.30;;;;;;5066653;28;19927;-66
2023/10/08 11:07:46;;;;;;;;;;;17.20;88.90;;;;;;5076368;28;19920;-69
2023/10/08 11:10:15;;;;;;;;;;;17.20;88.30;;;;;;5066988;28;20012;-67
2023/10/08 11:12:47;;;;;;;;;;;17.00;82.40;;;;;;5083306;28;20321;-66
2023/10/08 11:15:15;;;;;;;;;;;17.00;85.10;;;;;;5060265;28;19927;-66
2023/10/08 11:17:41;;;;;;;;;;;16.90;86.70;;;;;;5067935;28;19924;-67
2023/10/08 11:20:27;;;;;;;;;;;16.80;85.00;;;;;;5075157;28;19917;-68
2023/10/08 11:22:55;;;;;;;;;;;16.60;88.80;;;;;;5068968;28;19916;-67
2023/10/08 11:25:30;;;;;;;;;;;16.60;85.90;;;;;;5062259;28;19986;-69
2023/10/08 11:28:01;;;;;;;;;;;16.70;87.80;;;;;;5077474;28;19929;-69
2023/10/08 11:30:30;;;;;;;;;;;16.70;84.70;;;;;;5092924;28;20031;-67
2023/10/08 11:32:57;;;;;;;;;;;16.60;86.80;;;;;;5084993;28;19916;-67
2023/10/08 11:35:22;;;;;;;;;;;16.80;90.90;;;;;;5078177;28;19916;-68
2023/10/08 11:37:53;;;;;;;;;;;17.00;86.10;;;;;;5061522;28;20332;-67
2023/10/08 11:40:28;;;;;;;;;;;17.10;90.00;;;;;;5067317;28;19924;-67
2023/10/08 11:42:58;;;;;;;;;;;17.20;90.00;;;;;;5063259;28;19939;-67
2023/10/08 11:45:24;;;;;;;;;;;17.30;86.70;;;;;;5072165;28;19959;-67
2023/10/08 11:47:55;;;;;;;;;;;17.20;86.40;;;;;;5070000;28;19924;-67
2023/10/08 11:50:30;;;;;;;;;;;17.30;88.90;;;;;;5069096;28;19927;-67
2023/10/08 11:53:01;;;;;;;;;;;17.30;88.10;;;;;;5075415;28;20216;-67
2023/10/08 11:55:26;;;;;;;;;;;17.20;83.60;;;;;;5055846;28;19916;-66
2023/10/08 11:57:52;;;;;;;;;;;17.30;89.10;;;;;;5072431;28;19923;-67
2023/10/08 12:00:24;;;;;;;;;;;17.40;90.90;;;;;;5088219;28;20391;-67
2023/10/08 12:02:52;;;;;;;;;;;17.40;87.20;;;;;;5070612;28;19964;-67
2023/10/08 12:05:22;;;;;;;;;;;17.40;90.10;;;;;;5071935;28;19917;-67
2023/10/08 12:07:50;;;;;;;;;;;17.40;89.50;;;;;;5068993;28;19993;-67
2023/10/08 12:10:21;;;;;;;;;;;17.10;82.50;;;;;;5071079;28;19924;-67
2023/10/08 12:12:54;;;;;;;;;;;17.10;79.50;;;;;;5070331;28;19955;-67
2023/10/08 12:15:20;;;;;;;;;;;17.20;85.10;;;;;;5071815;28;20001;-67
2023/10/08 12:17:53;;;;;;;;;;;17.20;88.00;;;;;;5071369;28;19921;-67
2023/10/08 12:20:26;;;;;;;;;;;17.40;88.10;;;;;;5067354;28;22244;-67
2023/10/08 12:22:51;;;;;;;;;;;17.50;87.30;;;;;;5067922;28;19942;-67
2023/10/08 12:25:17;;;;;;;;;;;17.30;79.80;;;;;;5084186;28;19923;-67
2023/10/08 12:27:43;;;;;;;;;;;17.40;83.80;;;;;;5065510;28;19920;-67
2023/10/08 12:30:10;;;;;;;;;;;17.30;79.90;;;;;;5059357;28;19916;-67
2023/10/08 12:32:42;;;;;;;;;;;17.20;78.80;;;;;;5067773;28;19920;-67
2023/10/08 12:35:12;;;;;;;;;;;17.30;86.70;;;;;;5086889;28;19923;-67
2023/10/08 12:37:40;;;;;;;;;;;17.20;83.10;;;;;;5066035;28;19932;-67
2023/10/08 12:40:22;;;;;;;;;;;17.30;87.70;;;;;;5050394;28;19916;-66
2023/10/08 12:42:48;;;;;;;;;;;17.40;83.30;;;;;;5066624;28;19942;-67
2023/10/08 12:45:13;;;;;;;;;;;17.50;88.60;;;;;;5065357;28;20007;-67
2023/10/08 12:47:39;;;;;;;;;;;17.40;87.60;;;;;;5086164;28;19959;-67
2023/10/08 12:50:07;;;;;;;;;;;17.40;86.50;;;;;;5051538;28;19916;-66
2023/10/08 12:52:34;;;;;;;;;;;17.20;83.30;;;;;;5066306;28;19920;-67
2023/10/08 12:55:03;;;;;;;;;;;17.30;84.70;;;;;;5052951;28;20292;-67
2023/10/08 12:57:33;;;;;;;;;;;17.10;82.40;;;;;;5070221;28;20275;-68
2023/10/08 12:59:59;;;;;;;;;;;17.10;83.10;;;;;;5081254;28;20061;-67
2023/10/08 13:02:28;;;;;;;;;;;16.90;84.80;;;;;;5066978;28;19917;-67
2023/10/08 13:04:54;;;;;;;;;;;16.90;86.00;;;;;;5075118;28;19931;-66
2023/10/08 13:07:21;;;;;;;;;;;16.70;84.50;;;;;;5075985;28;20039;-67
2023/10/08 13:09:47;;;;;;;;;;;16.70;84.90;;;;;;5081289;28;19999;-67
2023/10/08 13:12:15;;;;;;;;;;;16.60;83.70;;;;;;5068857;28;20503;-67
2023/10/08 13:14:41;;;;;;;;;;;16.60;86.80;;;;;;5068473;28;19932;-66
2023/10/08 13:17:10;;;;;;;;;;;16.50;84.90;;;;;;5067229;28;19924;-66
2023/10/08 13:19:36;;;;;;;;;;;16.40;84.50;;;;;;5069966;28;19920;-67
2023/10/08 13:22:06;;;;;;;;;;;16.50;85.10;;;;;;5067271;28;20599;-67
2023/10/08 13:24:32;;;;;;;;;;;16.50;86.10;;;;;;5068404;28;19924;-67
2023/10/08 13:26:58;;;;;;;;;;;16.50;83.50;;;;;;5068662;28;19927;-67
2023/10/08 13:29:26;;;;;;;;;;;16.50;87.90;;;;;;5066857;28;20352;-66
2023/10/08 13:31:53;;;;;;;;;;;16.50;89.60;;;;;;5065360;28;19943;-67
2023/10/08 13:34:21;;;;;;;;;;;16.60;90.10;;;;;;5069734;28;19916;-67
2023/10/08 13:36:49;;;;;;;;;;;16.50;90.40;;;;;;5066871;28;20340;-66
2023/10/08 13:39:18;;;;;;;;;;;16.50;89.60;;;;;;5069250;28;19920;-67
2023/10/08 13:41:47;;;;;;;;;;;16.40;90.30;;;;;;5061172;28;19944;-67
2023/10/08 13:44:13;;;;;;;;;;;16.40;90.40;;;;;;5063282;28;19917;-66
2023/10/08 13:46:42;;;;;;;;;;;16.30;89.10;;;;;;5067121;28;20371;-67
2023/10/08 13:49:10;;;;;;;;;;;16.30;90.50;;;;;;5071154;28;19936;-66
2023/10/08 13:51:37;;;;;;;;;;;16.30;90.70;;;;;;5064683;28;19927;-67
2023/10/08 13:54:06;;;;;;;;;;;16.30;90.90;;;;;;5060570;28;19931;-66
2023/10/08 13:56:32;;;;;;;;;;;16.30;91.20;;;;;;5064029;28;19920;-66
2023/10/08 13:59:14;;;;;;;;;;;16.20;89.80;;;;;;5066346;28;19928;-67
2023/10/08 14:01:45;;;;;;;;;;;16.20;91.20;;;;;;5051908;28;20225;-67
2023/10/08 14:04:11;;;;;;;;;;;16.30;92.00;;;;;;5066653;28;20236;-67
2023/10/08 14:06:38;;;;;;;;;;;16.30;92.60;;;;;;5065501;28;19916;-67
2023/10/08 14:09:08;;;;;;;;;;;16.40;92.90;;;;;;5080468;28;19920;-67
2023/10/08 14:11:34;;;;;;;;;;;16.40;92.40;;;;;;5085180;28;20003;-67
2023/10/08 14:14:07;;;;;;;;;;;16.50;92.30;;;;;;5085870;28;19922;-66
2023/10/08 14:16:41;;;;;;;;;;;16.50;91.00;;;;;;5075263;28;19921;-67
2023/10/08 14:19:08;;;;;;;;;;;16.60;92.10;;;;;;5050992;28;19917;-67
2023/10/08 14:21:38;;;;;;;;;;;16.50;91.70;;;;;;5048246;28;20376;-67
2023/10/08 14:24:04;;;;;;;;;;;16.60;91.50;;;;;;5061890;28;19962;-67
2023/10/08 14:26:36;;;;;;;;;;;16.50;92.60;;;;;;5068195;28;19916;-67
2023/10/08 14:29:10;;;;;;;;;;;16.50;90.10;;;;;;5067161;28;19935;-66
2023/10/08 14:31:38;;;;;;;;;;;16.60;91.80;;;;;;5068701;28;19989;-67
2023/10/08 14:44:58;;;;;;;;;;;16.40;92.60;;;;;;5074270;28;19916;-67
2023/10/08 14:47:23;;;;;;;;;;;16.40;92.80;;;;;;5062981;28;20003;-67
2023/10/08 14:49:49;;;;;;;;;;;16.40;92.80;;;;;;5063961;28;19958;-67
2023/10/08 14:52:15;;;;;;;;;;;16.40;92.90;;;;;;5056363;28;20047;-67
2023/10/08 14:54:42;;;;;;;;;;;16.30;90.80;;;;;;5058985;28;19939;-67
2023/10/08 14:57:09;;;;;;;;;;;16.30;92.20;;;;;;5070406;28;19990;-67
2023/10/08 14:59:35;;;;;;;;;;;16.20;93.30;;;;;;5062855;28;19916;-67
2023/10/08 15:02:00;;;;;;;;;;;16.20;93.30;;;;;;5061616;28;19927;-67
2023/10/08 15:04:28;;;;;;;;;;;16.20;93.90;;;;;;5075570;28;19967;-67
2023/10/08 15:06:55;;;;;;;;;;;16.10;94.60;;;;;;5058497;28;20331;-67
2023/10/08 15:09:23;;;;;;;;;;;16.10;94.70;;;;;;5059614;28;21362;-67
2023/10/08 15:11:52;;;;;;;;;;;16.00;94.90;;;;;;5066730;28;20251;-67
2023/10/08 15:14:24;;;;;;;;;;;16.00;95.50;;;;;;5061020;28;19924;-67
2023/10/08 15:16:53;;;;;;;;;;;16.00;95.50;;;;;;5045813;28;20341;-67
2023/10/08 15:19:21;;;;;;;;;;;16.00;95.60;;;;;;5060681;28;19924;-67
2023/10/08 15:21:50;;;;;;;;;;;16.00;95.90;;;;;;5076287;28;20046;-67